createdAt,value
2017-05-18T00:00:53.769Z,16.60
2017-05-18T00:03:22.681Z,16.60
2017-05-18T00:05:50.100Z,16.50
2017-05-18T00:08:17.265Z,16.50
2017-05-18T00:10:44.639Z,16.50
2017-05-18T00:13:11.920Z,16.50
2017-05-18T00:15:39.428Z,16.50
2017-05-18T00:18:06.925Z,16.40
2017-05-18T00:20:34.449Z,16.40
2017-05-18T00:23:01.247Z,16.40
2017-05-18T00:25:28.572Z,16.40
2017-05-18T00:27:55.416Z,16.30
2017-05-18T00:30:23.366Z,16.30
2017-05-18T00:32:50.449Z,16.20
2017-05-18T00:35:18.050Z,16.20
2017-05-18T00:37:46.632Z,16.20
2017-05-18T00:40:14.279Z,16.10
2017-05-18T00:42:48.508Z,16.00
2017-05-18T00:45:16.324Z,16.00
2017-05-18T00:50:16.398Z,15.90
2017-05-18T00:52:44.077Z,15.90
2017-05-18T00:55:10.708Z,15.80
2017-05-18T00:57:39.199Z,15.60
2017-05-18T01:00:07.207Z,15.60
2017-05-18T01:02:34.225Z,15.60
2017-05-18T01:05:01.381Z,15.60
2017-05-18T01:07:30.025Z,15.60
2017-05-18T01:12:27.464Z,15.50
2017-05-18T01:14:55.182Z,15.40
2017-05-18T01:19:55.118Z,15.40
2017-05-18T01:22:22.317Z,15.40
2017-05-18T01:24:48.959Z,15.40
2017-05-18T01:27:17.641Z,15.40
2017-05-18T01:29:45.140Z,15.40
2017-05-18T01:32:13.288Z,15.40
2017-05-18T01:34:40.170Z,15.30
2017-05-18T01:37:07.397Z,15.10
2017-05-18T01:39:35.372Z,15.10
2017-05-18T01:42:02.216Z,15.10
2017-05-18T01:44:29.840Z,15.10
2017-05-18T01:46:57.347Z,15.00
2017-05-18T01:49:25.880Z,15.00
2017-05-18T01:51:52.883Z,15.00
2017-05-18T01:54:20.040Z,14.90
2017-05-18T01:56:47.231Z,14.90
2017-05-18T01:59:14.758Z,14.80
2017-05-18T02:01:42.238Z,14.80
2017-05-18T02:04:10.509Z,14.70
2017-05-18T02:06:37.992Z,14.60
2017-05-18T02:09:05.196Z,14.60
2017-05-18T02:11:33.227Z,14.50
2017-05-18T02:14:00.356Z,14.50
2017-05-18T02:16:30.485Z,14.50
2017-05-18T02:18:58.000Z,14.50
2017-05-18T02:21:24.818Z,14.50
2017-05-18T02:23:51.580Z,14.50
2017-05-18T02:26:20.725Z,14.50
2017-05-18T02:28:48.514Z,14.40
2017-05-18T02:33:48.909Z,14.30
2017-05-18T02:36:15.587Z,14.40
2017-05-18T02:38:42.723Z,14.30
2017-05-18T02:41:09.497Z,14.30
2017-05-18T02:43:36.547Z,14.20
2017-05-18T02:46:03.712Z,14.20
2017-05-18T02:48:31.951Z,14.20
2017-05-18T02:50:59.261Z,14.20
2017-05-18T02:53:27.124Z,14.20
2017-05-18T02:55:54.268Z,14.20
2017-05-18T02:58:21.015Z,14.30
2017-05-18T03:00:47.973Z,14.30
2017-05-18T03:03:15.079Z,14.20
2017-05-18T03:05:43.516Z,14.10
2017-05-18T03:08:10.998Z,14.20
2017-05-18T03:10:39.044Z,14.10
2017-05-18T03:13:06.211Z,14.10
2017-05-18T03:15:33.013Z,14.00
2017-05-18T03:18:00.401Z,14.00
2017-05-18T03:20:28.595Z,13.90
2017-05-18T03:22:56.625Z,13.90
2017-05-18T03:25:23.089Z,13.90
2017-05-18T03:27:49.501Z,13.90
2017-05-18T03:30:17.612Z,14.00
2017-05-18T03:32:44.739Z,14.00
2017-05-18T03:35:13.010Z,14.00
2017-05-18T03:37:40.184Z,13.90
2017-05-18T03:40:07.788Z,13.70
2017-05-18T03:42:34.610Z,13.70
2017-05-18T03:45:04.662Z,13.70
2017-05-18T03:47:32.204Z,13.80
2017-05-18T03:49:59.257Z,13.80
2017-05-18T03:52:26.916Z,13.80
2017-05-18T03:54:54.371Z,13.80
2017-05-18T03:57:22.441Z,14.00
2017-05-18T03:59:49.100Z,14.00
2017-05-18T04:02:17.753Z,14.00
2017-05-18T04:04:45.834Z,14.00
2017-05-18T04:07:12.614Z,14.00
2017-05-18T04:09:39.328Z,14.10
2017-05-18T04:12:05.823Z,14.20
2017-05-18T04:14:33.990Z,14.20
2017-05-18T04:17:01.132Z,14.20
2017-05-18T04:19:28.189Z,14.10
2017-05-18T04:24:27.325Z,14.20
2017-05-18T04:26:54.517Z,14.10
2017-05-18T04:29:22.952Z,14.20
2017-05-18T04:31:49.376Z,14.20
2017-05-18T04:34:16.750Z,14.40
2017-05-18T04:36:43.555Z,14.40
2017-05-18T04:39:10.711Z,14.40
2017-05-18T04:41:38.280Z,14.40
2017-05-18T04:44:05.129Z,14.50
2017-05-18T04:46:32.320Z,14.50
2017-05-18T04:51:31.513Z,14.60
2017-05-18T04:56:30.433Z,14.70
2017-05-18T04:59:00.279Z,14.80
2017-05-18T05:01:28.390Z,15.00
2017-05-18T05:09:06.748Z,15.40
2017-05-18T05:11:36.213Z,15.50
2017-05-18T05:14:04.084Z,15.50
2017-05-18T05:16:32.677Z,15.50
2017-05-18T05:21:33.153Z,15.80
2017-05-18T05:24:06.571Z,16.00
2017-05-18T05:26:34.128Z,16.10
2017-05-18T05:29:00.999Z,16.10
2017-05-18T05:31:28.399Z,16.20
2017-05-18T05:33:56.535Z,16.30
2017-05-18T05:36:25.696Z,16.30
2017-05-18T05:41:25.056Z,16.40
2017-05-18T05:43:52.812Z,16.50
2017-05-18T05:48:52.356Z,16.60
2017-05-18T05:51:20.884Z,16.70
2017-05-18T05:53:48.755Z,16.80
2017-05-18T05:56:15.908Z,17.00
2017-05-18T06:01:17.582Z,17.20
2017-05-18T06:03:45.685Z,17.20
2017-05-18T06:06:12.536Z,17.50
2017-05-18T06:08:39.598Z,17.70
2017-05-18T06:11:09.050Z,17.60
2017-05-18T06:13:39.541Z,17.70
2017-05-18T06:16:12.764Z,17.80
2017-05-18T06:23:43.065Z,17.80
2017-05-18T06:26:10.226Z,17.90
2017-05-18T06:28:37.058Z,17.90
2017-05-18T06:31:04.131Z,17.90
2017-05-18T06:33:30.896Z,18.00
2017-05-18T06:35:57.721Z,18.10
2017-05-18T06:38:24.552Z,18.40
2017-05-18T06:40:51.361Z,18.50
2017-05-18T06:43:17.928Z,18.60
2017-05-18T06:45:46.068Z,18.40
2017-05-18T06:48:12.491Z,18.40
2017-05-18T06:50:39.347Z,18.50
2017-05-18T06:53:06.877Z,18.60
2017-05-18T06:55:33.384Z,18.60
2017-05-18T06:58:02.256Z,18.90
2017-05-18T07:00:28.730Z,18.80
2017-05-18T07:02:56.939Z,18.80
2017-05-18T07:05:23.796Z,18.80
2017-05-18T07:07:53.557Z,18.80
2017-05-18T07:10:21.237Z,19.00
2017-05-18T07:12:48.772Z,19.20
2017-05-18T07:15:18.273Z,19.30
2017-05-18T07:17:45.388Z,19.40
2017-05-18T07:20:12.514Z,19.50
2017-05-18T07:22:40.635Z,19.50
2017-05-18T07:25:08.249Z,19.80
2017-05-18T07:27:34.952Z,19.80
2017-05-18T07:30:01.837Z,20.10
2017-05-18T07:32:29.287Z,20.00
2017-05-18T07:34:57.735Z,20.00
2017-05-18T07:37:26.033Z,20.00
2017-05-18T07:42:27.104Z,20.00
2017-05-18T07:44:56.389Z,20.10
2017-05-18T07:47:25.892Z,20.20
2017-05-18T07:49:53.452Z,20.50
2017-05-18T07:52:22.936Z,20.60
2017-05-18T07:54:50.316Z,20.80
2017-05-18T07:57:17.845Z,21.00
2017-05-18T07:59:46.468Z,21.00
2017-05-18T08:02:15.825Z,21.20
2017-05-18T08:04:49.742Z,21.20
2017-05-18T08:07:17.082Z,21.40
2017-05-18T08:09:44.786Z,21.80
2017-05-18T08:12:11.591Z,21.80
2017-05-18T08:14:40.151Z,21.90
2017-05-18T08:17:07.072Z,21.90
2017-05-18T08:19:41.714Z,22.00
2017-05-18T08:22:12.729Z,22.20
2017-05-18T08:24:50.520Z,22.30
2017-05-18T08:27:30.895Z,22.50
2017-05-18T08:30:14.008Z,22.50
2017-05-18T08:32:42.791Z,22.60
2017-05-18T08:35:11.526Z,22.60
2017-05-18T08:40:13.638Z,22.70
2017-05-18T08:42:41.902Z,23.00
2017-05-18T08:47:50.946Z,23.10
2017-05-18T08:50:23.121Z,23.30
2017-05-18T08:52:53.203Z,23.30
2017-05-18T08:57:52.489Z,23.60
2017-05-18T09:00:26.340Z,23.90
2017-05-18T09:08:23.878Z,24.40
2017-05-18T09:11:22.497Z,24.40
2017-05-18T09:13:54.658Z,24.40
2017-05-18T09:19:22.795Z,24.80
2017-05-18T09:22:02.521Z,24.90
2017-05-18T09:24:29.399Z,24.90
2017-05-18T09:29:31.021Z,24.90
2017-05-18T09:32:15.047Z,24.70
2017-05-18T09:37:34.529Z,24.90
2017-05-18T09:42:40.037Z,25.50
2017-05-18T09:45:06.973Z,25.90
2017-05-18T09:57:47.692Z,26.80
2017-05-18T10:05:21.971Z,26.00
2017-05-18T10:07:49.988Z,26.30
2017-05-18T10:12:54.108Z,26.50
2017-05-18T10:15:21.023Z,26.60
2017-05-18T10:17:47.496Z,26.60
2017-05-18T10:22:53.969Z,26.90
2017-05-18T10:28:01.277Z,27.30
2017-05-18T10:33:02.288Z,27.20
2017-05-18T10:35:29.532Z,27.40
2017-05-18T10:38:00.094Z,27.40
2017-05-18T10:40:27.000Z,27.40
2017-05-18T10:42:57.361Z,27.70
2017-05-18T10:50:29.538Z,28.20
2017-05-18T10:55:31.721Z,28.10
2017-05-18T10:57:59.700Z,28.10
2017-05-18T11:05:47.884Z,28.50
2017-05-18T11:13:46.295Z,28.30
2017-05-18T11:24:20.032Z,28.50
2017-05-18T11:29:26.265Z,29.20
2017-05-18T11:39:46.558Z,30.60
2017-05-18T11:42:15.150Z,30.60
2017-05-18T11:52:53.081Z,31.30
2017-05-18T11:55:21.873Z,32.00
2017-05-18T12:03:17.616Z,33.70
2017-05-18T12:05:48.271Z,35.30
2017-05-18T12:32:28.753Z,37.30
2017-05-18T12:34:58.953Z,37.30
2017-05-18T12:37:27.154Z,36.50
2017-05-18T12:42:39.576Z,36.40
2017-05-18T12:47:43.773Z,33.90
2017-05-18T12:53:09.237Z,33.90
2017-05-18T12:58:12.990Z,35.40
2017-05-18T13:06:16.769Z,40.70
2017-05-18T13:22:19.954Z,44.30
2017-05-18T13:27:31.410Z,41.70
2017-05-18T13:32:49.707Z,40.10
2017-05-18T13:40:34.004Z,36.00
2017-05-18T13:43:11.118Z,34.30
2017-05-18T13:53:25.498Z,32.60
2017-05-18T13:56:00.981Z,32.30
2017-05-18T14:03:45.493Z,31.40
2017-05-18T14:06:15.053Z,31.40
2017-05-18T14:08:48.488Z,31.20
2017-05-18T14:11:21.172Z,31.20
2017-05-18T14:13:49.044Z,31.20
2017-05-18T14:16:18.657Z,30.80
2017-05-18T14:29:18.642Z,30.70
2017-05-18T14:34:21.182Z,31.70
2017-05-18T14:36:50.998Z,33.10
2017-05-18T14:41:52.265Z,36.10
2017-05-18T14:49:25.804Z,37.30
2017-05-18T14:51:54.705Z,35.70
2017-05-18T14:54:24.333Z,34.80
2017-05-18T15:02:04.361Z,33.00
2017-05-18T15:04:33.192Z,33.00
2017-05-18T15:07:09.558Z,32.80
2017-05-18T15:17:20.675Z,32.50
2017-05-18T15:22:32.681Z,32.50
2017-05-18T15:25:18.766Z,32.50
2017-05-18T15:30:39.546Z,32.60
2017-05-18T15:33:11.285Z,33.10
2017-05-18T15:38:13.971Z,33.60
2017-05-18T15:40:54.740Z,33.70
2017-05-18T15:43:22.809Z,32.80
2017-05-18T15:45:51.042Z,32.80
2017-05-18T15:51:02.578Z,31.80
2017-05-18T15:56:43.544Z,32.20
2017-05-18T15:59:14.765Z,31.70
2017-05-18T16:05:04.650Z,31.50
2017-05-18T16:10:32.997Z,31.00
2017-05-18T16:13:01.237Z,30.70
2017-05-18T16:15:28.189Z,30.20
2017-05-18T16:17:55.875Z,30.20
2017-05-18T16:20:24.084Z,29.10
2017-05-18T16:25:23.486Z,28.60
2017-05-18T16:30:28.111Z,28.60
2017-05-18T16:32:55.692Z,28.60
2017-05-18T16:38:06.951Z,28.40
2017-05-18T16:43:16.424Z,28.20
2017-05-18T16:45:47.833Z,28.10
2017-05-18T16:48:19.403Z,28.00
2017-05-18T16:55:58.872Z,27.80
2017-05-18T17:13:48.834Z,26.90
2017-05-18T17:21:26.960Z,26.60
2017-05-18T17:26:41.720Z,26.60
2017-05-18T17:29:10.335Z,26.40
2017-05-18T17:31:39.478Z,26.30
2017-05-18T17:34:11.311Z,26.30
2017-05-18T18:03:24.165Z,25.30
2017-05-18T18:08:32.335Z,25.10
2017-05-18T18:11:02.061Z,25.00
2017-05-18T18:13:29.281Z,25.00
2017-05-18T18:21:12.069Z,24.80
2017-05-18T18:23:48.556Z,24.70
2017-05-18T18:26:18.561Z,24.60
2017-05-18T18:28:54.588Z,24.60
2017-05-18T18:31:25.013Z,24.60
2017-05-18T18:52:03.524Z,24.00
2017-05-18T19:13:02.019Z,23.30
2017-05-18T19:24:14.177Z,22.90
2017-05-18T19:34:55.865Z,22.60
2017-05-18T19:42:52.254Z,22.40
2017-05-18T19:48:28.930Z,22.30
2017-05-18T19:59:05.951Z,22.10
2017-05-18T20:06:52.799Z,22.00
2017-05-18T20:22:31.241Z,21.80
2017-05-18T20:36:26.741Z,21.50
2017-05-18T20:38:56.927Z,21.50
2017-05-18T20:41:31.214Z,21.50
2017-05-18T20:44:08.884Z,21.50
2017-05-18T20:56:51.398Z,21.30
2017-05-18T21:01:56.278Z,21.30
2017-05-18T21:04:35.460Z,21.20
2017-05-18T21:09:38.771Z,21.10
2017-05-18T21:14:44.620Z,21.00
2017-05-18T21:19:46.071Z,21.00
2017-05-18T21:22:17.088Z,21.00
2017-05-18T21:24:45.887Z,21.00
2017-05-18T21:27:17.440Z,20.90
2017-05-18T21:32:21.800Z,20.90
2017-05-18T21:34:52.534Z,20.80
2017-05-18T21:37:21.955Z,20.90
2017-05-18T21:42:23.148Z,20.80
2017-05-18T21:50:07.135Z,20.60
2017-05-18T22:00:32.975Z,20.60
2017-05-18T22:05:43.645Z,20.60
2017-05-18T22:20:50.136Z,20.40
2017-05-18T22:28:25.524Z,20.30
2017-05-18T22:33:26.355Z,20.30
2017-05-18T22:41:01.275Z,20.10
2017-05-18T22:46:04.055Z,20.10
2017-05-18T22:58:49.521Z,19.80
2017-05-18T23:04:20.704Z,19.60
2017-05-18T23:06:52.086Z,19.40
2017-05-18T23:14:35.176Z,19.40
2017-05-18T23:22:21.184Z,19.30
2017-05-18T23:25:05.229Z,19.30
2017-05-18T23:27:38.433Z,19.30
2017-05-18T23:30:07.712Z,19.20
2017-05-18T23:32:47.719Z,19.30
2017-05-18T23:38:09.990Z,19.30
2017-05-18T23:43:32.508Z,19.20
2017-05-18T23:51:36.360Z,19.00
2017-05-18T23:57:48.849Z,19.00
